»·PEaware :: N7375Q KUDD-KVNY

N7375Q :: KUDD-KVNY

FLIGHT INFORMATION

Flight Status: Arrived
Operator: Privately registered:
United States
More flights under this callsign
Pilot: Ion I. (24133)
Aircraft: SOCATA TBM-900
(TBM9)
More flights by this aircraft type
Origin: KUDD Bermuda Dunes
United States
Destination: KVNY Van Nuys
United States
More flights between these airports :: More routes between these airports
Route: +V388 DEWAY POM VNY
File this flight plan on PilotEdge
Remarks:
Altitude:
(Current/Filed)
12,000ft
Speed:
(Current/Filed)
250kts
Departed: 30-Jul-20 08:38 PM
Arrived: 30-Jul-20 09:19 PM
Distance/Time
Traveled:
114nm/0:41
Distance/Time
To Go:
Arrived

Flight Plot

Page will automatically refresh every two minutes.

Flight plan parsing failed; only flown route is shown


Map Options




Map Legend


Flown Route
Filed Route
Departure Airport
Arrival Airport
Navaid (VOR, NDB)
Fix

Horizontal Profiles

Position Reports

Time Latitude Longitude Heading Altitude Ground
Speed
30-Jul-20 20:25 33.745366 -116.269356 270 67ft 0kts
30-Jul-20 20:26 33.745366 -116.269356 270 67ft 0kts
30-Jul-20 20:26 33.745366 -116.269356 270 67ft 0kts
30-Jul-20 20:28 33.745366 -116.269356 270 67ft 0kts
30-Jul-20 20:28 33.745366 -116.269356 270 67ft 0kts
30-Jul-20 20:29 33.745366 -116.269356 270 67ft 0kts
30-Jul-20 20:30 33.745365 -116.269356 270 67ft 0kts
30-Jul-20 20:31 33.745365 -116.269356 270 67ft 0kts
30-Jul-20 20:32 33.745365 -116.269356 270 67ft 0kts
30-Jul-20 20:33 33.745365 -116.269356 270 67ft 0kts
30-Jul-20 20:34 33.745365 -116.269356 270 67ft 0kts
30-Jul-20 20:35 33.745474 -116.268635 116 67ft 11kts
30-Jul-20 20:36 33.745094 -116.267700 92 67ft 0kts
30-Jul-20 20:37 33.749263 -116.276904 298 93ft 109kts
30-Jul-20 20:38 33.750568 -116.311472 214 2117ft 134kts
30-Jul-20 20:39 33.729476 -116.282306 101 4468ft 150kts
30-Jul-20 20:40 33.703295 -116.244463 140 6650ft 157kts
30-Jul-20 20:41 33.671832 -116.209253 138 9129ft 155kts
30-Jul-20 20:42 33.641866 -116.175717 134 11553ft 139kts
30-Jul-20 20:43 33.657800 -116.139569 345 11991ft 232kts
30-Jul-20 20:44 33.687820 -116.210594 288 11934ft 260kts
30-Jul-20 20:45 33.733878 -116.277812 318 11930ft 267kts
30-Jul-20 20:46 33.788636 -116.338856 318 11931ft 269kts
30-Jul-20 20:47 33.843653 -116.400302 318 11931ft 269kts
30-Jul-20 20:48 33.881630 -116.475079 287 11934ft 272kts
30-Jul-20 20:49 33.903776 -116.562490 287 11931ft 272kts
30-Jul-20 20:50 33.925897 -116.649795 287 11931ft 272kts
30-Jul-20 20:51 33.945273 -116.726501 286 11930ft 272kts
30-Jul-20 20:52 33.958447 -116.816315 277 11931ft 272kts
30-Jul-20 20:53 33.969964 -116.906805 277 11943ft 271kts
30-Jul-20 20:54 33.981662 -116.999412 277 10820ft 292kts
30-Jul-20 20:55 33.993698 -117.095076 278 8863ft 286kts
30-Jul-20 20:56 34.005070 -117.186028 277 7992ft 256kts
30-Jul-20 20:57 34.015434 -117.269747 277 7983ft 249kts
30-Jul-20 20:58 34.025628 -117.352032 277 8003ft 246kts
30-Jul-20 20:59 34.035706 -117.434101 277 7994ft 245kts
30-Jul-20 21:00 34.045678 -117.515819 277 7992ft 244kts
30-Jul-20 21:01 34.055536 -117.597031 277 7994ft 243kts
30-Jul-20 21:02 34.065324 -117.678088 277 7997ft 242kts
30-Jul-20 21:03 34.075049 -117.759088 277 7997ft 243kts
30-Jul-20 21:04 34.089538 -117.840628 283 6808ft 260kts
30-Jul-20 21:05 34.106676 -117.922829 284 6002ft 234kts
30-Jul-20 21:06 34.122562 -117.999299 284 6013ft 234kts
30-Jul-20 21:07 34.138416 -118.075966 284 6009ft 235kts
30-Jul-20 21:08 34.145934 -118.154132 267 6012ft 235kts
30-Jul-20 21:09 34.141270 -118.233246 266 6008ft 236kts
30-Jul-20 21:10 34.136664 -118.315041 266 5421ft 252kts
30-Jul-20 21:11 34.132213 -118.400938 267 4418ft 246kts
30-Jul-20 21:12 34.141238 -118.476862 280 3527ft 218kts
30-Jul-20 21:13 34.170431 -118.531834 328 2913ft 193kts
30-Jul-20 21:14 34.220845 -118.539446 356 2086ft 159kts
30-Jul-20 21:15 34.255592 -118.534572 67 1768ft 114kts
30-Jul-20 21:16 34.250607 -118.501214 124 1720ft 98kts
30-Jul-20 21:17 34.226836 -118.492039 179 1130ft 89kts
30-Jul-20 21:18 34.207710 -118.490195 175 805ft 25kts
30-Jul-20 21:19 34.207817 -118.491532 354 805ft 0kts
30-Jul-20 21:20 34.207817 -118.491532 354 805ft 0kts
30-Jul-20 21:21 34.207817 -118.491532 354 805ft 0kts

Navigation Log

Ident Type
Flight plan parsing failed, navigation log unavailable